createdAt,value
2023-01-05T00:00:33.821Z,20.9
2023-01-05T00:15:32.076Z,20.9
2023-01-05T00:30:32.276Z,20.9
2023-01-05T00:45:32.447Z,20.8
2023-01-05T01:00:31.887Z,20.8
2023-01-05T01:15:31.884Z,20.8
2023-01-05T01:30:31.858Z,20.8
2023-01-05T01:45:32.090Z,20.8
2023-01-05T02:00:32.238Z,20.8
2023-01-05T02:15:32.461Z,20.8
2023-01-05T02:30:32.623Z,20.8
2023-01-05T02:45:32.620Z,20.7
2023-01-05T03:00:31.896Z,20.7
2023-01-05T03:15:32.622Z,20.7
2023-01-05T03:30:32.614Z,20.7
2023-01-05T03:45:32.396Z,20.7
2023-01-05T04:00:32.990Z,20.7
2023-01-05T04:15:31.959Z,20.7
2023-01-05T04:30:32.133Z,20.7
2023-01-05T04:45:32.088Z,20.7
2023-01-05T05:00:31.756Z,20.7
2023-01-05T05:15:32.057Z,20.6
2023-01-05T05:30:32.187Z,20.6
2023-01-05T05:45:32.247Z,20.6
2023-01-05T06:00:32.268Z,20.6
2023-01-05T06:15:32.686Z,20.6
2023-01-05T06:30:32.583Z,20.6
2023-01-05T06:45:32.251Z,20.7
2023-01-05T07:00:36.745Z,20.8
2023-01-05T07:15:31.826Z,20.9
2023-01-05T07:30:35.025Z,20.9
2023-01-05T07:45:32.654Z,20.9
2023-01-05T08:00:34.545Z,21
2023-01-05T08:15:32.844Z,21.0
2023-01-05T08:30:33.338Z,21.1
2023-01-05T08:45:32.477Z,21.1
2023-01-05T09:00:34.414Z,21.2
2023-01-05T09:15:32.391Z,21.2
2023-01-05T09:30:40.154Z,21.2
2023-01-05T09:45:33.255Z,21.2
2023-01-05T10:00:34.563Z,21.3
2023-01-05T10:15:32.406Z,21.3
2023-01-05T10:30:33.063Z,21.3
2023-01-05T10:45:32.793Z,21.3
2023-01-05T11:00:33.772Z,21.4
2023-01-05T11:15:32.598Z,21.4
2023-01-05T11:30:32.405Z,21.5
2023-01-05T11:45:32.681Z,21.5
2023-01-05T12:00:35.980Z,21.5
2023-01-05T12:15:32.593Z,21.5
2023-01-05T12:45:32.508Z,21.5
2023-01-05T13:00:34.275Z,21.6
2023-01-05T13:15:35.294Z,21.6
2023-01-05T13:30:33.039Z,21.6
2023-01-05T13:45:31.981Z,21.7
2023-01-05T14:00:33.603Z,21.7
2023-01-05T14:15:32.407Z,21.7
2023-01-05T14:30:32.301Z,21.7
2023-01-05T14:45:32.275Z,21.7
2023-01-05T15:00:32.570Z,21.7
2023-01-05T15:15:32.857Z,21.7
2023-01-05T15:30:32.910Z,21.6
2023-01-05T15:45:32.436Z,21.5
2023-01-05T16:00:33.344Z,21.5
2023-01-05T16:15:32.515Z,21.4
2023-01-05T16:30:33.929Z,21.4
2023-01-05T16:45:32.377Z,21.4
2023-01-05T17:00:35.378Z,21.3
2023-01-05T17:15:32.388Z,21.3
2023-01-05T17:30:33.148Z,21.3
2023-01-05T17:45:32.521Z,21.2
2023-01-05T18:00:36.164Z,21.2
2023-01-05T18:15:33.019Z,21.2
2023-01-05T18:30:32.819Z,21.1
2023-01-05T18:45:38.872Z,21.1
2023-01-05T19:00:32.563Z,21.1
2023-01-05T19:15:32.271Z,21.0
2023-01-05T19:30:33.296Z,21
2023-01-05T19:45:32.428Z,21
2023-01-05T20:00:32.180Z,21
2023-01-05T20:15:32.289Z,20.9
2023-01-05T20:30:33.061Z,20.9
2023-01-05T20:45:32.732Z,20.9
2023-01-05T21:00:32.270Z,20.9
2023-01-05T21:15:32.177Z,20.9
2023-01-05T21:30:32.484Z,20.9
2023-01-05T21:45:32.079Z,20.8
2023-01-05T22:00:33.418Z,20.8
2023-01-05T22:15:32.638Z,20.8
2023-01-05T22:30:32.540Z,20.8
2023-01-05T22:45:32.586Z,20.8
2023-01-05T23:00:32.309Z,20.7
2023-01-05T23:15:32.354Z,20.7
2023-01-05T23:30:31.808Z,20.7
2023-01-05T23:45:32.778Z,20.7
